sensor_id;sensor_type;location;lat;lon;timestamp;P1;durP1;ratioP1;P2;durP2;ratioP2
70981;SDS011;58640;51.320;9.456;2023-04-25T00:00:39;6.53;;;2.22;;
70981;SDS011;58640;51.320;9.456;2023-04-25T00:03:05;1.77;;;1.52;;
70981;SDS011;58640;51.320;9.456;2023-04-25T00:05:31;5.95;;;2.20;;
70981;SDS011;58640;51.320;9.456;2023-04-25T00:07:57;4.85;;;2.05;;
70981;SDS011;58640;51.320;9.456;2023-04-25T00:10:23;4.63;;;2.85;;
70981;SDS011;58640;51.320;9.456;2023-04-25T00:12:48;3.58;;;2.10;;
70981;SDS011;58640;51.320;9.456;2023-04-25T00:15:14;4.13;;;2.35;;
70981;SDS011;58640;51.320;9.456;2023-04-25T00:17:39;5.55;;;2.40;;
70981;SDS011;58640;51.320;9.456;2023-04-25T00:20:05;6.65;;;2.50;;
70981;SDS011;58640;51.320;9.456;2023-04-25T00:22:34;3.78;;;2.60;;
70981;SDS011;58640;51.320;9.456;2023-04-25T00:24:59;4.88;;;2.63;;
70981;SDS011;58640;51.320;9.456;2023-04-25T00:27:25;7.25;;;2.65;;
70981;SDS011;58640;51.320;9.456;2023-04-25T00:29:50;3.03;;;2.25;;
70981;SDS011;58640;51.320;9.456;2023-04-25T00:32:16;7.22;;;2.50;;
70981;SDS011;58640;51.320;9.456;2023-04-25T00:34:41;5.50;;;2.63;;
70981;SDS011;58640;51.320;9.456;2023-04-25T00:37:06;5.13;;;2.55;;
70981;SDS011;58640;51.320;9.456;2023-04-25T00:39:32;5.65;;;2.83;;
70981;SDS011;58640;51.320;9.456;2023-04-25T00:41:57;4.00;;;2.83;;
70981;SDS011;58640;51.320;9.456;2023-04-25T00:44:23;7.05;;;2.92;;
70981;SDS011;58640;51.320;9.456;2023-04-25T00:46:49;4.20;;;2.70;;
70981;SDS011;58640;51.320;9.456;2023-04-25T00:49:15;4.45;;;2.80;;
70981;SDS011;58640;51.320;9.456;2023-04-25T00:51:41;8.02;;;4.13;;
70981;SDS011;58640;51.320;9.456;2023-04-25T00:54:09;4.68;;;2.97;;
70981;SDS011;58640;51.320;9.456;2023-04-25T00:56:36;5.03;;;2.90;;
70981;SDS011;58640;51.320;9.456;2023-04-25T00:59:02;4.00;;;3.17;;
70981;SDS011;58640;51.320;9.456;2023-04-25T01:01:28;6.72;;;2.78;;
70981;SDS011;58640;51.320;9.456;2023-04-25T01:03:53;5.30;;;3.45;;
70981;SDS011;58640;51.320;9.456;2023-04-25T01:06:19;7.40;;;3.83;;
70981;SDS011;58640;51.320;9.456;2023-04-25T01:08:45;7.57;;;4.75;;
70981;SDS011;58640;51.320;9.456;2023-04-25T01:11:10;5.95;;;3.50;;
70981;SDS011;58640;51.320;9.456;2023-04-25T01:13:35;6.15;;;3.38;;
70981;SDS011;58640;51.320;9.456;2023-04-25T01:16:01;9.43;;;3.83;;
70981;SDS011;58640;51.320;9.456;2023-04-25T01:18:27;7.55;;;4.10;;
70981;SDS011;58640;51.320;9.456;2023-04-25T01:20:53;7.63;;;4.07;;
70981;SDS011;58640;51.320;9.456;2023-04-25T01:23:19;7.57;;;3.40;;
70981;SDS011;58640;51.320;9.456;2023-04-25T01:25:46;8.32;;;3.65;;
70981;SDS011;58640;51.320;9.456;2023-04-25T01:28:12;4.20;;;2.83;;
70981;SDS011;58640;51.320;9.456;2023-04-25T01:30:38;9.35;;;3.58;;
70981;SDS011;58640;51.320;9.456;2023-04-25T01:33:04;6.80;;;3.67;;
70981;SDS011;58640;51.320;9.456;2023-04-25T01:35:30;6.55;;;3.70;;
70981;SDS011;58640;51.320;9.456;2023-04-25T01:37:57;11.80;;;4.10;;
70981;SDS011;58640;51.320;9.456;2023-04-25T01:40:22;9.65;;;3.90;;
70981;SDS011;58640;51.320;9.456;2023-04-25T01:42:49;5.80;;;4.15;;
70981;SDS011;58640;51.320;9.456;2023-04-25T01:45:15;8.07;;;4.15;;
70981;SDS011;58640;51.320;9.456;2023-04-25T01:47:42;6.50;;;4.00;;
70981;SDS011;58640;51.320;9.456;2023-04-25T01:50:09;7.65;;;3.67;;
70981;SDS011;58640;51.320;9.456;2023-04-25T01:52:36;7.47;;;5.07;;
70981;SDS011;58640;51.320;9.456;2023-04-25T01:55:02;8.30;;;4.65;;
70981;SDS011;58640;51.320;9.456;2023-04-25T01:57:27;10.98;;;5.00;;
70981;SDS011;58640;51.320;9.456;2023-04-25T01:59:54;7.93;;;4.85;;
70981;SDS011;58640;51.320;9.456;2023-04-25T02:02:24;8.60;;;4.47;;
70981;SDS011;58640;51.320;9.456;2023-04-25T02:04:51;8.73;;;4.45;;
70981;SDS011;58640;51.320;9.456;2023-04-25T02:07:16;9.75;;;5.63;;
70981;SDS011;58640;51.320;9.456;2023-04-25T02:09:41;11.70;;;5.43;;
70981;SDS011;58640;51.320;9.456;2023-04-25T02:12:07;6.72;;;4.85;;
70981;SDS011;58640;51.320;9.456;2023-04-25T02:14:33;8.02;;;4.53;;
70981;SDS011;58640;51.320;9.456;2023-04-25T02:16:59;10.60;;;4.75;;
70981;SDS011;58640;51.320;9.456;2023-04-25T02:19:24;9.90;;;4.47;;
70981;SDS011;58640;51.320;9.456;2023-04-25T02:21:50;14.15;;;5.10;;
70981;SDS011;58640;51.320;9.456;2023-04-25T02:24:15;11.38;;;4.78;;
70981;SDS011;58640;51.320;9.456;2023-04-25T02:26:40;9.18;;;4.70;;
70981;SDS011;58640;51.320;9.456;2023-04-25T02:29:06;9.00;;;4.90;;
70981;SDS011;58640;51.320;9.456;2023-04-25T02:31:32;8.50;;;4.80;;
70981;SDS011;58640;51.320;9.456;2023-04-25T02:33:57;7.63;;;4.47;;
70981;SDS011;58640;51.320;9.456;2023-04-25T02:36:22;8.63;;;3.97;;
70981;SDS011;58640;51.320;9.456;2023-04-25T02:38:48;11.25;;;4.70;;
70981;SDS011;58640;51.320;9.456;2023-04-25T02:41:14;8.40;;;4.70;;
70981;SDS011;58640;51.320;9.456;2023-04-25T02:43:39;6.55;;;4.65;;
70981;SDS011;58640;51.320;9.456;2023-04-25T02:46:04;12.75;;;5.30;;
70981;SDS011;58640;51.320;9.456;2023-04-25T02:48:31;10.60;;;5.15;;
70981;SDS011;58640;51.320;9.456;2023-04-25T02:50:56;7.43;;;5.28;;
70981;SDS011;58640;51.320;9.456;2023-04-25T02:53:22;8.02;;;5.20;;
70981;SDS011;58640;51.320;9.456;2023-04-25T02:55:47;7.88;;;4.65;;
70981;SDS011;58640;51.320;9.456;2023-04-25T02:58:12;6.65;;;4.85;;
70981;SDS011;58640;51.320;9.456;2023-04-25T03:00:38;11.68;;;5.95;;
70981;SDS011;58640;51.320;9.456;2023-04-25T03:03:03;10.23;;;5.20;;
70981;SDS011;58640;51.320;9.456;2023-04-25T03:05:28;7.25;;;4.57;;
70981;SDS011;58640;51.320;9.456;2023-04-25T03:07:54;7.38;;;5.18;;
70981;SDS011;58640;51.320;9.456;2023-04-25T03:10:19;10.15;;;5.45;;
70981;SDS011;58640;51.320;9.456;2023-04-25T03:12:45;10.85;;;5.85;;
70981;SDS011;58640;51.320;9.456;2023-04-25T03:15:10;12.77;;;5.13;;
70981;SDS011;58640;51.320;9.456;2023-04-25T03:17:35;11.63;;;5.05;;
70981;SDS011;58640;51.320;9.456;2023-04-25T03:20:01;8.27;;;5.15;;
70981;SDS011;58640;51.320;9.456;2023-04-25T03:22:29;7.97;;;4.60;;
70981;SDS011;58640;51.320;9.456;2023-04-25T03:24:54;11.43;;;5.20;;
70981;SDS011;58640;51.320;9.456;2023-04-25T03:27:19;8.15;;;5.40;;
70981;SDS011;58640;51.320;9.456;2023-04-25T03:29:45;7.90;;;5.15;;
70981;SDS011;58640;51.320;9.456;2023-04-25T03:32:10;11.20;;;5.68;;
70981;SDS011;58640;51.320;9.456;2023-04-25T03:34:35;8.82;;;4.57;;
70981;SDS011;58640;51.320;9.456;2023-04-25T03:37:01;13.70;;;5.20;;
70981;SDS011;58640;51.320;9.456;2023-04-25T03:39:26;6.88;;;4.75;;
70981;SDS011;58640;51.320;9.456;2023-04-25T03:41:51;9.85;;;4.70;;
70981;SDS011;58640;51.320;9.456;2023-04-25T03:44:17;10.10;;;4.97;;
70981;SDS011;58640;51.320;9.456;2023-04-25T03:46:42;7.28;;;4.35;;
70981;SDS011;58640;51.320;9.456;2023-04-25T03:49:07;7.60;;;5.50;;
70981;SDS011;58640;51.320;9.456;2023-04-25T03:51:33;8.73;;;4.57;;
70981;SDS011;58640;51.320;9.456;2023-04-25T03:53:58;9.48;;;4.95;;
70981;SDS011;58640;51.320;9.456;2023-04-25T03:56:23;10.75;;;4.57;;
70981;SDS011;58640;51.320;9.456;2023-04-25T03:58:49;11.50;;;5.05;;
70981;SDS011;58640;51.320;9.456;2023-04-25T04:01:14;10.95;;;5.05;;
70981;SDS011;58640;51.320;9.456;2023-04-25T04:03:40;12.95;;;5.53;;
70981;SDS011;58640;51.320;9.456;2023-04-25T04:06:05;8.32;;;4.50;;
70981;SDS011;58640;51.320;9.456;2023-04-25T04:08:32;8.68;;;4.05;;
70981;SDS011;58640;51.320;9.456;2023-04-25T04:10:58;10.35;;;4.38;;
70981;SDS011;58640;51.320;9.456;2023-04-25T04:13:25;10.00;;;4.18;;
70981;SDS011;58640;51.320;9.456;2023-04-25T04:15:51;7.95;;;4.40;;
70981;SDS011;58640;51.320;9.456;2023-04-25T04:18:16;8.43;;;4.57;;
70981;SDS011;58640;51.320;9.456;2023-04-25T04:20:41;8.23;;;4.65;;
70981;SDS011;58640;51.320;9.456;2023-04-25T04:23:07;6.60;;;4.25;;
70981;SDS011;58640;51.320;9.456;2023-04-25T04:25:32;7.05;;;4.75;;
70981;SDS011;58640;51.320;9.456;2023-04-25T04:27:57;10.90;;;4.85;;
70981;SDS011;58640;51.320;9.456;2023-04-25T04:30:24;11.43;;;5.00;;
70981;SDS011;58640;51.320;9.456;2023-04-25T04:32:50;10.32;;;4.75;;
70981;SDS011;58640;51.320;9.456;2023-04-25T04:35:16;13.52;;;4.70;;
70981;SDS011;58640;51.320;9.456;2023-04-25T04:37:42;9.32;;;4.75;;
70981;SDS011;58640;51.320;9.456;2023-04-25T04:40:08;9.85;;;4.75;;
70981;SDS011;58640;51.320;9.456;2023-04-25T04:42:34;8.13;;;4.43;;
70981;SDS011;58640;51.320;9.456;2023-04-25T04:45:01;7.72;;;4.90;;
70981;SDS011;58640;51.320;9.456;2023-04-25T04:47:26;8.30;;;5.25;;
70981;SDS011;58640;51.320;9.456;2023-04-25T04:49:55;8.85;;;5.13;;
70981;SDS011;58640;51.320;9.456;2023-04-25T04:52:21;12.23;;;5.10;;
70981;SDS011;58640;51.320;9.456;2023-04-25T04:54:46;11.10;;;4.50;;
70981;SDS011;58640;51.320;9.456;2023-04-25T04:57:11;11.75;;;5.50;;
70981;SDS011;58640;51.320;9.456;2023-04-25T04:59:37;13.38;;;5.18;;
70981;SDS011;58640;51.320;9.456;2023-04-25T05:02:02;10.02;;;5.07;;
70981;SDS011;58640;51.320;9.456;2023-04-25T05:04:27;10.52;;;4.78;;
70981;SDS011;58640;51.320;9.456;2023-04-25T05:06:53;11.25;;;4.88;;
70981;SDS011;58640;51.320;9.456;2023-04-25T05:09:18;6.60;;;4.55;;
70981;SDS011;58640;51.320;9.456;2023-04-25T05:11:44;5.10;;;3.33;;
70981;SDS011;58640;51.320;9.456;2023-04-25T05:14:09;12.18;;;3.47;;
70981;SDS011;58640;51.320;9.456;2023-04-25T05:16:35;6.97;;;3.60;;
70981;SDS011;58640;51.320;9.456;2023-04-25T05:19:00;5.93;;;3.50;;
70981;SDS011;58640;51.320;9.456;2023-04-25T05:21:25;3.95;;;2.97;;
70981;SDS011;58640;51.320;9.456;2023-04-25T05:23:53;6.07;;;3.40;;
70981;SDS011;58640;51.320;9.456;2023-04-25T05:26:19;3.42;;;2.92;;
70981;SDS011;58640;51.320;9.456;2023-04-25T05:28:45;3.60;;;3.28;;
70981;SDS011;58640;51.320;9.456;2023-04-25T05:31:10;11.38;;;3.58;;
70981;SDS011;58640;51.320;9.456;2023-04-25T05:33:36;6.75;;;3.22;;
70981;SDS011;58640;51.320;9.456;2023-04-25T05:36:02;4.22;;;3.00;;
70981;SDS011;58640;51.320;9.456;2023-04-25T05:38:27;4.63;;;3.03;;
70981;SDS011;58640;51.320;9.456;2023-04-25T05:40:52;6.43;;;3.65;;
70981;SDS011;58640;51.320;9.456;2023-04-25T05:43:18;4.30;;;3.25;;
70981;SDS011;58640;51.320;9.456;2023-04-25T05:45:43;6.05;;;2.95;;
70981;SDS011;58640;51.320;9.456;2023-04-25T05:48:08;4.28;;;3.03;;
70981;SDS011;58640;51.320;9.456;2023-04-25T05:50:34;7.18;;;4.15;;
70981;SDS011;58640;51.320;9.456;2023-04-25T05:53:00;6.65;;;3.53;;
70981;SDS011;58640;51.320;9.456;2023-04-25T05:55:25;6.68;;;3.50;;
70981;SDS011;58640;51.320;9.456;2023-04-25T05:57:50;6.72;;;3.03;;
70981;SDS011;58640;51.320;9.456;2023-04-25T06:00:16;3.97;;;3.30;;
70981;SDS011;58640;51.320;9.456;2023-04-25T06:02:41;3.97;;;2.85;;
70981;SDS011;58640;51.320;9.456;2023-04-25T06:05:07;4.25;;;2.45;;
70981;SDS011;58640;51.320;9.456;2023-04-25T06:07:33;4.20;;;2.28;;
70981;SDS011;58640;51.320;9.456;2023-04-25T06:09:58;4.60;;;2.55;;
70981;SDS011;58640;51.320;9.456;2023-04-25T06:12:25;6.13;;;2.38;;
70981;SDS011;58640;51.320;9.456;2023-04-25T06:14:50;5.03;;;2.10;;
70981;SDS011;58640;51.320;9.456;2023-04-25T06:17:15;6.38;;;1.98;;
70981;SDS011;58640;51.320;9.456;2023-04-25T06:19:41;3.00;;;1.90;;
70981;SDS011;58640;51.320;9.456;2023-04-25T06:22:06;3.13;;;1.83;;
70981;SDS011;58640;51.320;9.456;2023-04-25T06:24:32;8.48;;;1.85;;
70981;SDS011;58640;51.320;9.456;2023-04-25T06:26:58;6.43;;;2.08;;
70981;SDS011;58640;51.320;9.456;2023-04-25T06:29:24;8.38;;;2.70;;
70981;SDS011;58640;51.320;9.456;2023-04-25T06:31:50;6.15;;;2.05;;
70981;SDS011;58640;51.320;9.456;2023-04-25T06:34:15;6.25;;;2.42;;
70981;SDS011;58640;51.320;9.456;2023-04-25T06:36:41;7.60;;;2.20;;
70981;SDS011;58640;51.320;9.456;2023-04-25T06:39:06;11.75;;;2.40;;
70981;SDS011;58640;51.320;9.456;2023-04-25T06:41:31;10.65;;;2.70;;
70981;SDS011;58640;51.320;9.456;2023-04-25T06:43:57;4.55;;;2.28;;
70981;SDS011;58640;51.320;9.456;2023-04-25T06:46:22;7.53;;;2.45;;
70981;SDS011;58640;51.320;9.456;2023-04-25T06:48:47;5.90;;;3.17;;
70981;SDS011;58640;51.320;9.456;2023-04-25T06:51:13;8.02;;;3.10;;
70981;SDS011;58640;51.320;9.456;2023-04-25T06:53:39;9.20;;;2.35;;
70981;SDS011;58640;51.320;9.456;2023-04-25T06:56:07;11.20;;;3.55;;
70981;SDS011;58640;51.320;9.456;2023-04-25T06:58:32;8.05;;;3.25;;
70981;SDS011;58640;51.320;9.456;2023-04-25T07:00:58;12.40;;;2.88;;
70981;SDS011;58640;51.320;9.456;2023-04-25T07:03:23;7.70;;;3.17;;
70981;SDS011;58640;51.320;9.456;2023-04-25T07:05:49;8.82;;;2.92;;
70981;SDS011;58640;51.320;9.456;2023-04-25T07:08:15;9.68;;;3.03;;
70981;SDS011;58640;51.320;9.456;2023-04-25T07:10:40;9.63;;;3.10;;
70981;SDS011;58640;51.320;9.456;2023-04-25T07:13:05;13.98;;;3.60;;
70981;SDS011;58640;51.320;9.456;2023-04-25T07:15:31;15.38;;;3.60;;
70981;SDS011;58640;51.320;9.456;2023-04-25T07:17:56;11.48;;;3.58;;
70981;SDS011;58640;51.320;9.456;2023-04-25T07:20:21;13.70;;;3.40;;
70981;SDS011;58640;51.320;9.456;2023-04-25T07:22:47;9.85;;;3.40;;
70981;SDS011;58640;51.320;9.456;2023-04-25T07:25:12;12.98;;;3.67;;
70981;SDS011;58640;51.320;9.456;2023-04-25T07:27:37;13.15;;;2.92;;
70981;SDS011;58640;51.320;9.456;2023-04-25T07:30:04;16.33;;;5.05;;
70981;SDS011;58640;51.320;9.456;2023-04-25T07:32:30;12.55;;;3.30;;
70981;SDS011;58640;51.320;9.456;2023-04-25T07:34:55;13.27;;;4.53;;
70981;SDS011;58640;51.320;9.456;2023-04-25T07:37:20;15.13;;;3.58;;
70981;SDS011;58640;51.320;9.456;2023-04-25T07:39:46;12.75;;;3.83;;
70981;SDS011;58640;51.320;9.456;2023-04-25T07:42:12;18.63;;;5.25;;
70981;SDS011;58640;51.320;9.456;2023-04-25T07:44:37;13.20;;;3.00;;
70981;SDS011;58640;51.320;9.456;2023-04-25T07:47:04;13.43;;;3.78;;
70981;SDS011;58640;51.320;9.456;2023-04-25T07:49:32;7.97;;;2.72;;
70981;SDS011;58640;51.320;9.456;2023-04-25T07:52:01;14.07;;;3.15;;
70981;SDS011;58640;51.320;9.456;2023-04-25T07:54:27;14.88;;;3.00;;
70981;SDS011;58640;51.320;9.456;2023-04-25T07:56:53;11.65;;;3.97;;
70981;SDS011;58640;51.320;9.456;2023-04-25T07:59:18;12.20;;;3.47;;
70981;SDS011;58640;51.320;9.456;2023-04-25T08:01:44;7.47;;;2.05;;
70981;SDS011;58640;51.320;9.456;2023-04-25T08:04:10;12.57;;;2.35;;
70981;SDS011;58640;51.320;9.456;2023-04-25T08:06:35;10.45;;;2.45;;
70981;SDS011;58640;51.320;9.456;2023-04-25T08:09:00;13.57;;;2.70;;
70981;SDS011;58640;51.320;9.456;2023-04-25T08:11:26;8.10;;;2.30;;
70981;SDS011;58640;51.320;9.456;2023-04-25T08:13:51;10.02;;;2.33;;
70981;SDS011;58640;51.320;9.456;2023-04-25T08:16:17;11.65;;;2.88;;
70981;SDS011;58640;51.320;9.456;2023-04-25T08:18:42;12.23;;;2.10;;
70981;SDS011;58640;51.320;9.456;2023-04-25T08:21:07;15.80;;;2.90;;
70981;SDS011;58640;51.320;9.456;2023-04-25T08:23:36;15.07;;;5.53;;
70981;SDS011;58640;51.320;9.456;2023-04-25T08:26:01;11.57;;;2.97;;
70981;SDS011;58640;51.320;9.456;2023-04-25T08:28:27;11.60;;;3.05;;
70981;SDS011;58640;51.320;9.456;2023-04-25T08:30:53;21.30;;;5.72;;
70981;SDS011;58640;51.320;9.456;2023-04-25T08:33:18;7.53;;;2.20;;
70981;SDS011;58640;51.320;9.456;2023-04-25T08:35:44;9.30;;;2.67;;
70981;SDS011;58640;51.320;9.456;2023-04-25T08:38:09;9.43;;;3.53;;
70981;SDS011;58640;51.320;9.456;2023-04-25T08:40:35;10.00;;;2.33;;
70981;SDS011;58640;51.320;9.456;2023-04-25T08:43:03;13.60;;;2.67;;
70981;SDS011;58640;51.320;9.456;2023-04-25T08:45:31;7.70;;;2.60;;
70981;SDS011;58640;51.320;9.456;2023-04-25T08:47:58;15.23;;;2.28;;
70981;SDS011;58640;51.320;9.456;2023-04-25T08:50:24;13.80;;;2.70;;
70981;SDS011;58640;51.320;9.456;2023-04-25T08:52:51;12.63;;;2.83;;
70981;SDS011;58640;51.320;9.456;2023-04-25T08:55:19;11.10;;;3.45;;
70981;SDS011;58640;51.320;9.456;2023-04-25T08:57:46;10.07;;;2.20;;
70981;SDS011;58640;51.320;9.456;2023-04-25T09:00:12;9.70;;;2.35;;
70981;SDS011;58640;51.320;9.456;2023-04-25T09:02:42;14.43;;;2.15;;
70981;SDS011;58640;51.320;9.456;2023-04-25T09:05:08;15.38;;;6.28;;
70981;SDS011;58640;51.320;9.456;2023-04-25T09:07:37;13.27;;;2.47;;
70981;SDS011;58640;51.320;9.456;2023-04-25T09:10:02;9.35;;;2.05;;
70981;SDS011;58640;51.320;9.456;2023-04-25T09:12:28;10.20;;;2.00;;
70981;SDS011;58640;51.320;9.456;2023-04-25T09:15:01;6.68;;;2.40;;
70981;SDS011;58640;51.320;9.456;2023-04-25T09:17:29;8.70;;;2.17;;
70981;SDS011;58640;51.320;9.456;2023-04-25T09:19:54;10.43;;;2.17;;
70981;SDS011;58640;51.320;9.456;2023-04-25T09:22:19;12.65;;;1.80;;
70981;SDS011;58640;51.320;9.456;2023-04-25T09:24:47;12.80;;;2.22;;
70981;SDS011;58640;51.320;9.456;2023-04-25T09:27:18;6.63;;;2.38;;
70981;SDS011;58640;51.320;9.456;2023-04-25T09:29:45;9.18;;;2.75;;
70981;SDS011;58640;51.320;9.456;2023-04-25T09:32:12;8.70;;;2.55;;
70981;SDS011;58640;51.320;9.456;2023-04-25T09:34:47;10.75;;;2.38;;
70981;SDS011;58640;51.320;9.456;2023-04-25T09:37:18;11.48;;;2.13;;
70981;SDS011;58640;51.320;9.456;2023-04-25T09:39:44;7.43;;;3.40;;
70981;SDS011;58640;51.320;9.456;2023-04-25T09:42:11;5.75;;;1.92;;
70981;SDS011;58640;51.320;9.456;2023-04-25T09:44:36;10.30;;;3.63;;
70981;SDS011;58640;51.320;9.456;2023-04-25T09:47:01;9.88;;;2.53;;
70981;SDS011;58640;51.320;9.456;2023-04-25T09:49:27;6.57;;;1.70;;
70981;SDS011;58640;51.320;9.456;2023-04-25T09:51:56;6.90;;;2.55;;
70981;SDS011;58640;51.320;9.456;2023-04-25T09:54:25;9.07;;;2.13;;
70981;SDS011;58640;51.320;9.456;2023-04-25T09:56:52;6.68;;;1.92;;
70981;SDS011;58640;51.320;9.456;2023-04-25T09:59:21;13.75;;;1.63;;
70981;SDS011;58640;51.320;9.456;2023-04-25T10:01:47;11.63;;;1.92;;
70981;SDS011;58640;51.320;9.456;2023-04-25T10:04:15;9.25;;;1.95;;
70981;SDS011;58640;51.320;9.456;2023-04-25T10:06:45;8.32;;;1.65;;
70981;SDS011;58640;51.320;9.456;2023-04-25T10:09:14;10.27;;;1.77;;
70981;SDS011;58640;51.320;9.456;2023-04-25T10:11:40;7.97;;;1.38;;
70981;SDS011;58640;51.320;9.456;2023-04-25T10:14:06;5.60;;;2.35;;
70981;SDS011;58640;51.320;9.456;2023-04-25T10:16:31;15.32;;;3.25;;
70981;SDS011;58640;51.320;9.456;2023-04-25T10:18:57;7.88;;;1.63;;
70981;SDS011;58640;51.320;9.456;2023-04-25T10:21:22;7.78;;;1.95;;
70981;SDS011;58640;51.320;9.456;2023-04-25T10:23:51;10.15;;;1.85;;
70981;SDS011;58640;51.320;9.456;2023-04-25T10:26:17;7.35;;;1.70;;
70981;SDS011;58640;51.320;9.456;2023-04-25T10:29:16;4.30;;;1.10;;
70981;SDS011;58640;51.320;9.456;2023-04-25T10:31:38;7.05;;;1.50;;
70981;SDS011;58640;51.320;9.456;2023-04-25T10:34:11;7.90;;;1.75;;
70981;SDS011;58640;51.320;9.456;2023-04-25T10:36:36;2.92;;;1.30;;
70981;SDS011;58640;51.320;9.456;2023-04-25T10:39:06;9.00;;;0.95;;
70981;SDS011;58640;51.320;9.456;2023-04-25T10:41:45;10.80;;;2.05;;
70981;SDS011;58640;51.320;9.456;2023-04-25T10:44:12;9.75;;;1.80;;
70981;SDS011;58640;51.320;9.456;2023-04-25T10:46:38;2.25;;;1.02;;
70981;SDS011;58640;51.320;9.456;2023-04-25T10:49:04;9.60;;;1.60;;
70981;SDS011;58640;51.320;9.456;2023-04-25T10:51:33;8.98;;;1.77;;
70981;SDS011;58640;51.320;9.456;2023-04-25T10:54:01;4.80;;;1.70;;
70981;SDS011;58640;51.320;9.456;2023-04-25T10:56:38;6.75;;;1.77;;
70981;SDS011;58640;51.320;9.456;2023-04-25T11:04:06;2.58;;;1.23;;
70981;SDS011;58640;51.320;9.456;2023-04-25T11:09:16;6.85;;;1.48;;
70981;SDS011;58640;51.320;9.456;2023-04-25T11:11:42;6.25;;;1.80;;
70981;SDS011;58640;51.320;9.456;2023-04-25T11:14:07;7.93;;;1.58;;
70981;SDS011;58640;51.320;9.456;2023-04-25T11:16:33;4.85;;;1.30;;
70981;SDS011;58640;51.320;9.456;2023-04-25T11:18:58;2.70;;;1.02;;
70981;SDS011;58640;51.320;9.456;2023-04-25T11:21:27;4.05;;;1.67;;
70981;SDS011;58640;51.320;9.456;2023-04-25T11:23:56;2.58;;;1.40;;
70981;SDS011;58640;51.320;9.456;2023-04-25T11:26:22;4.40;;;1.20;;
70981;SDS011;58640;51.320;9.456;2023-04-25T11:28:49;5.65;;;1.15;;
70981;SDS011;58640;51.320;9.456;2023-04-25T11:31:15;5.05;;;1.27;;
70981;SDS011;58640;51.320;9.456;2023-04-25T11:33:40;2.85;;;1.73;;
70981;SDS011;58640;51.320;9.456;2023-04-25T11:36:07;4.32;;;1.45;;
70981;SDS011;58640;51.320;9.456;2023-04-25T11:38:32;4.57;;;1.83;;
70981;SDS011;58640;51.320;9.456;2023-04-25T11:40:59;7.35;;;2.10;;
70981;SDS011;58640;51.320;9.456;2023-04-25T11:43:25;2.72;;;1.15;;
70981;SDS011;58640;51.320;9.456;2023-04-25T11:45:50;8.70;;;1.92;;
70981;SDS011;58640;51.320;9.456;2023-04-25T11:48:17;4.68;;;1.20;;
70981;SDS011;58640;51.320;9.456;2023-04-25T11:50:43;7.60;;;1.75;;
70981;SDS011;58640;51.320;9.456;2023-04-25T11:53:08;5.10;;;1.20;;
70981;SDS011;58640;51.320;9.456;2023-04-25T11:55:35;7.32;;;3.45;;
70981;SDS011;58640;51.320;9.456;2023-04-25T11:58:01;4.15;;;1.17;;
70981;SDS011;58640;51.320;9.456;2023-04-25T12:00:28;4.40;;;1.60;;
70981;SDS011;58640;51.320;9.456;2023-04-25T12:02:54;3.13;;;1.50;;
70981;SDS011;58640;51.320;9.456;2023-04-25T12:05:23;3.15;;;1.70;;
70981;SDS011;58640;51.320;9.456;2023-04-25T12:07:50;6.45;;;2.03;;
70981;SDS011;58640;51.320;9.456;2023-04-25T12:10:16;3.53;;;1.38;;
70981;SDS011;58640;51.320;9.456;2023-04-25T12:12:43;4.32;;;2.00;;
70981;SDS011;58640;51.320;9.456;2023-04-25T12:17:47;6.72;;;1.67;;
70981;SDS011;58640;51.320;9.456;2023-04-25T12:20:15;3.78;;;1.30;;
70981;SDS011;58640;51.320;9.456;2023-04-25T12:22:42;5.28;;;1.52;;
70981;SDS011;58640;51.320;9.456;2023-04-25T12:25:10;5.78;;;2.13;;
70981;SDS011;58640;51.320;9.456;2023-04-25T12:27:37;4.68;;;1.60;;
70981;SDS011;58640;51.320;9.456;2023-04-25T12:30:03;6.57;;;1.73;;
70981;SDS011;58640;51.320;9.456;2023-04-25T12:32:29;4.20;;;1.42;;
70981;SDS011;58640;51.320;9.456;2023-04-25T12:34:54;6.32;;;1.60;;
70981;SDS011;58640;51.320;9.456;2023-04-25T12:37:19;3.83;;;1.23;;
70981;SDS011;58640;51.320;9.456;2023-04-25T12:39:45;10.23;;;2.45;;
70981;SDS011;58640;51.320;9.456;2023-04-25T12:42:11;8.07;;;2.10;;
70981;SDS011;58640;51.320;9.456;2023-04-25T12:44:37;4.43;;;1.55;;
70981;SDS011;58640;51.320;9.456;2023-04-25T12:47:03;10.15;;;1.52;;
70981;SDS011;58640;51.320;9.456;2023-04-25T12:49:29;4.78;;;1.40;;
70981;SDS011;58640;51.320;9.456;2023-04-25T12:51:54;5.65;;;1.38;;
70981;SDS011;58640;51.320;9.456;2023-04-25T12:54:19;7.13;;;1.67;;
70981;SDS011;58640;51.320;9.456;2023-04-25T12:56:45;6.72;;;1.65;;
70981;SDS011;58640;51.320;9.456;2023-04-25T12:59:11;5.35;;;1.20;;
70981;SDS011;58640;51.320;9.456;2023-04-25T13:01:36;7.60;;;1.65;;
70981;SDS011;58640;51.320;9.456;2023-04-25T13:04:02;5.22;;;1.67;;
70981;SDS011;58640;51.320;9.456;2023-04-25T13:06:27;8.18;;;1.83;;
70981;SDS011;58640;51.320;9.456;2023-04-25T13:08:54;4.10;;;1.38;;
70981;SDS011;58640;51.320;9.456;2023-04-25T13:11:20;3.63;;;1.13;;
70981;SDS011;58640;51.320;9.456;2023-04-25T13:13:45;4.65;;;1.17;;
70981;SDS011;58640;51.320;9.456;2023-04-25T13:16:11;3.83;;;1.50;;
70981;SDS011;58640;51.320;9.456;2023-04-25T13:18:38;1.13;;;1.02;;
70981;SDS011;58640;51.320;9.456;2023-04-25T13:21:04;4.70;;;1.90;;
70981;SDS011;58640;51.320;9.456;2023-04-25T13:23:29;2.92;;;1.00;;
70981;SDS011;58640;51.320;9.456;2023-04-25T13:25:56;2.80;;;1.25;;
70981;SDS011;58640;51.320;9.456;2023-04-25T13:28:23;6.03;;;1.33;;
70981;SDS011;58640;51.320;9.456;2023-04-25T13:30:51;3.50;;;1.20;;
70981;SDS011;58640;51.320;9.456;2023-04-25T13:33:16;3.92;;;1.08;;
70981;SDS011;58640;51.320;9.456;2023-04-25T13:35:42;4.47;;;1.48;;
70981;SDS011;58640;51.320;9.456;2023-04-25T13:38:08;3.67;;;1.05;;
70981;SDS011;58640;51.320;9.456;2023-04-25T13:40:33;5.60;;;1.33;;
70981;SDS011;58640;51.320;9.456;2023-04-25T13:43:00;3.50;;;1.10;;
70981;SDS011;58640;51.320;9.456;2023-04-25T13:45:26;5.32;;;1.30;;
70981;SDS011;58640;51.320;9.456;2023-04-25T13:47:52;3.83;;;1.67;;
70981;SDS011;58640;51.320;9.456;2023-04-25T13:50:17;5.28;;;1.90;;
70981;SDS011;58640;51.320;9.456;2023-04-25T13:52:43;3.25;;;1.23;;
70981;SDS011;58640;51.320;9.456;2023-04-25T13:55:08;6.43;;;1.52;;
70981;SDS011;58640;51.320;9.456;2023-04-25T13:57:34;3.75;;;1.42;;
70981;SDS011;58640;51.320;9.456;2023-04-25T14:00:01;9.40;;;1.63;;
70981;SDS011;58640;51.320;9.456;2023-04-25T14:02:32;5.65;;;1.48;;
70981;SDS011;58640;51.320;9.456;2023-04-25T14:04:57;6.22;;;1.35;;
70981;SDS011;58640;51.320;9.456;2023-04-25T14:07:22;3.47;;;1.45;;
70981;SDS011;58640;51.320;9.456;2023-04-25T14:09:48;5.32;;;1.65;;
70981;SDS011;58640;51.320;9.456;2023-04-25T14:12:13;2.83;;;1.35;;
70981;SDS011;58640;51.320;9.456;2023-04-25T14:14:38;3.72;;;1.20;;
70981;SDS011;58640;51.320;9.456;2023-04-25T14:17:04;4.45;;;1.40;;
70981;SDS011;58640;51.320;9.456;2023-04-25T14:19:29;7.78;;;1.58;;
70981;SDS011;58640;51.320;9.456;2023-04-25T14:21:55;6.25;;;1.67;;
70981;SDS011;58640;51.320;9.456;2023-04-25T14:24:21;10.05;;;2.55;;
70981;SDS011;58640;51.320;9.456;2023-04-25T14:26:46;4.95;;;1.83;;
70981;SDS011;58640;51.320;9.456;2023-04-25T14:29:11;8.32;;;1.63;;
70981;SDS011;58640;51.320;9.456;2023-04-25T14:31:38;6.00;;;1.23;;
70981;SDS011;58640;51.320;9.456;2023-04-25T14:34:04;2.50;;;1.40;;
70981;SDS011;58640;51.320;9.456;2023-04-25T14:36:30;5.88;;;1.45;;
70981;SDS011;58640;51.320;9.456;2023-04-25T14:38:57;3.17;;;1.15;;
70981;SDS011;58640;51.320;9.456;2023-04-25T14:41:22;6.72;;;1.52;;
70981;SDS011;58640;51.320;9.456;2023-04-25T14:43:48;3.33;;;1.05;;
70981;SDS011;58640;51.320;9.456;2023-04-25T14:46:13;7.43;;;1.48;;